sensor_id;sensor_type;location;lat;lon;timestamp;P1;durP1;ratioP1;P2;durP2;ratioP2
5981;SDS011;3018;48.730;9.336;2022-09-28T00:01:53;1.65;;;1.00;;
5981;SDS011;3018;48.730;9.336;2022-09-28T00:04:19;2.75;;;1.10;;
5981;SDS011;3018;48.730;9.336;2022-09-28T00:06:47;2.15;;;0.80;;
5981;SDS011;3018;48.730;9.336;2022-09-28T00:09:13;1.27;;;1.20;;
5981;SDS011;3018;48.730;9.336;2022-09-28T00:11:39;1.50;;;1.10;;
5981;SDS011;3018;48.730;9.336;2022-09-28T00:14:07;1.35;;;1.15;;
5981;SDS011;3018;48.730;9.336;2022-09-28T00:16:36;1.40;;;1.40;;
5981;SDS011;3018;48.730;9.336;2022-09-28T00:19:03;2.60;;;1.10;;
5981;SDS011;3018;48.730;9.336;2022-09-28T00:21:31;1.30;;;1.30;;
5981;SDS011;3018;48.730;9.336;2022-09-28T00:23:59;2.28;;;1.60;;
5981;SDS011;3018;48.730;9.336;2022-09-28T00:26:40;1.20;;;1.20;;
5981;SDS011;3018;48.730;9.336;2022-09-28T00:29:07;2.60;;;1.50;;
5981;SDS011;3018;48.730;9.336;2022-09-28T00:31:33;1.35;;;1.02;;
5981;SDS011;3018;48.730;9.336;2022-09-28T00:34:01;1.33;;;1.33;;
5981;SDS011;3018;48.730;9.336;2022-09-28T00:36:29;2.58;;;1.48;;
5981;SDS011;3018;48.730;9.336;2022-09-28T00:38:56;1.20;;;1.20;;
5981;SDS011;3018;48.730;9.336;2022-09-28T00:41:25;1.05;;;1.05;;
5981;SDS011;3018;48.730;9.336;2022-09-28T00:43:52;2.03;;;1.52;;
5981;SDS011;3018;48.730;9.336;2022-09-28T00:46:19;3.40;;;1.58;;
5981;SDS011;3018;48.730;9.336;2022-09-28T00:48:47;1.00;;;1.00;;
5981;SDS011;3018;48.730;9.336;2022-09-28T00:51:15;1.98;;;1.27;;
5981;SDS011;3018;48.730;9.336;2022-09-28T00:53:41;1.23;;;1.20;;
5981;SDS011;3018;48.730;9.336;2022-09-28T00:56:09;1.30;;;1.20;;
5981;SDS011;3018;48.730;9.336;2022-09-28T00:58:38;2.08;;;1.30;;
5981;SDS011;3018;48.730;9.336;2022-09-28T01:01:06;1.42;;;1.30;;
5981;SDS011;3018;48.730;9.336;2022-09-28T01:03:32;1.80;;;1.17;;
5981;SDS011;3018;48.730;9.336;2022-09-28T01:06:00;0.95;;;0.95;;
5981;SDS011;3018;48.730;9.336;2022-09-28T01:08:27;1.25;;;1.00;;
5981;SDS011;3018;48.730;9.336;2022-09-28T01:10:54;1.58;;;1.05;;
5981;SDS011;3018;48.730;9.336;2022-09-28T01:13:20;1.20;;;1.20;;
5981;SDS011;3018;48.730;9.336;2022-09-28T01:15:52;2.60;;;0.90;;
5981;SDS011;3018;48.730;9.336;2022-09-28T01:18:24;1.00;;;0.90;;
5981;SDS011;3018;48.730;9.336;2022-09-28T01:20:56;0.60;;;0.60;;
5981;SDS011;3018;48.730;9.336;2022-09-28T01:23:42;0.70;;;0.70;;
5981;SDS011;3018;48.730;9.336;2022-09-28T01:26:16;0.93;;;0.85;;
5981;SDS011;3018;48.730;9.336;2022-09-28T01:28:48;2.22;;;0.93;;
5981;SDS011;3018;48.730;9.336;2022-09-28T01:31:18;0.70;;;0.70;;
5981;SDS011;3018;48.730;9.336;2022-09-28T01:33:46;0.75;;;0.75;;
5981;SDS011;3018;48.730;9.336;2022-09-28T01:36:14;1.85;;;0.70;;
5981;SDS011;3018;48.730;9.336;2022-09-28T01:38:44;1.23;;;0.90;;
5981;SDS011;3018;48.730;9.336;2022-09-28T01:41:12;1.27;;;0.70;;
5981;SDS011;3018;48.730;9.336;2022-09-28T01:43:44;1.05;;;0.77;;
5981;SDS011;3018;48.730;9.336;2022-09-28T01:46:12;1.05;;;0.90;;
5981;SDS011;3018;48.730;9.336;2022-09-28T01:48:40;0.82;;;0.80;;
5981;SDS011;3018;48.730;9.336;2022-09-28T01:51:09;0.85;;;0.85;;
5981;SDS011;3018;48.730;9.336;2022-09-28T01:53:38;1.40;;;0.73;;
5981;SDS011;3018;48.730;9.336;2022-09-28T01:56:06;1.13;;;0.80;;
5981;SDS011;3018;48.730;9.336;2022-09-28T01:58:35;2.90;;;0.90;;
5981;SDS011;3018;48.730;9.336;2022-09-28T02:01:05;0.95;;;0.80;;
5981;SDS011;3018;48.730;9.336;2022-09-28T02:03:34;6.32;;;1.27;;
5981;SDS011;3018;48.730;9.336;2022-09-28T02:06:03;0.70;;;0.70;;
5981;SDS011;3018;48.730;9.336;2022-09-28T02:08:32;0.82;;;0.80;;
5981;SDS011;3018;48.730;9.336;2022-09-28T02:11:06;0.93;;;0.90;;
5981;SDS011;3018;48.730;9.336;2022-09-28T02:13:34;1.35;;;0.90;;
5981;SDS011;3018;48.730;9.336;2022-09-28T02:16:02;1.90;;;0.88;;
5981;SDS011;3018;48.730;9.336;2022-09-28T02:18:30;1.65;;;0.65;;
5981;SDS011;3018;48.730;9.336;2022-09-28T02:20:58;1.10;;;0.90;;
5981;SDS011;3018;48.730;9.336;2022-09-28T02:23:26;2.22;;;1.02;;
5981;SDS011;3018;48.730;9.336;2022-09-28T02:25:54;1.17;;;0.95;;
5981;SDS011;3018;48.730;9.336;2022-09-28T02:28:25;3.25;;;0.73;;
5981;SDS011;3018;48.730;9.336;2022-09-28T02:30:52;0.80;;;0.80;;
5981;SDS011;3018;48.730;9.336;2022-09-28T02:33:19;1.33;;;0.85;;
5981;SDS011;3018;48.730;9.336;2022-09-28T02:35:48;1.95;;;0.90;;
5981;SDS011;3018;48.730;9.336;2022-09-28T02:38:14;1.13;;;0.88;;
5981;SDS011;3018;48.730;9.336;2022-09-28T02:40:41;1.80;;;1.23;;
5981;SDS011;3018;48.730;9.336;2022-09-28T02:43:10;2.35;;;1.10;;
5981;SDS011;3018;48.730;9.336;2022-09-28T02:45:48;3.50;;;0.90;;
5981;SDS011;3018;48.730;9.336;2022-09-28T02:48:18;2.17;;;0.80;;
5981;SDS011;3018;48.730;9.336;2022-09-28T02:50:53;2.75;;;1.00;;
5981;SDS011;3018;48.730;9.336;2022-09-28T02:53:26;2.65;;;0.95;;
5981;SDS011;3018;48.730;9.336;2022-09-28T02:56:00;2.92;;;0.88;;
5981;SDS011;3018;48.730;9.336;2022-09-28T02:58:31;2.00;;;1.65;;
5981;SDS011;3018;48.730;9.336;2022-09-28T03:01:02;9.75;;;4.65;;
5981;SDS011;3018;48.730;9.336;2022-09-28T03:03:33;4.45;;;2.38;;
5981;SDS011;3018;48.730;9.336;2022-09-28T03:06:08;3.10;;;0.80;;
5981;SDS011;3018;48.730;9.336;2022-09-28T03:08:37;3.28;;;1.27;;
5981;SDS011;3018;48.730;9.336;2022-09-28T03:11:06;3.38;;;0.95;;
5981;SDS011;3018;48.730;9.336;2022-09-28T03:13:33;2.22;;;0.68;;
5981;SDS011;3018;48.730;9.336;2022-09-28T03:16:09;2.40;;;0.95;;
5981;SDS011;3018;48.730;9.336;2022-09-28T03:18:36;3.40;;;1.10;;
5981;SDS011;3018;48.730;9.336;2022-09-28T03:21:02;1.38;;;0.60;;
5981;SDS011;3018;48.730;9.336;2022-09-28T03:23:32;4.95;;;1.20;;
5981;SDS011;3018;48.730;9.336;2022-09-28T03:25:58;1.70;;;1.00;;
5981;SDS011;3018;48.730;9.336;2022-09-28T03:28:25;3.10;;;0.93;;
5981;SDS011;3018;48.730;9.336;2022-09-28T03:30:52;3.58;;;0.80;;
5981;SDS011;3018;48.730;9.336;2022-09-28T03:33:19;7.07;;;1.10;;
5981;SDS011;3018;48.730;9.336;2022-09-28T03:35:46;1.73;;;1.02;;
5981;SDS011;3018;48.730;9.336;2022-09-28T03:38:12;5.78;;;1.02;;
5981;SDS011;3018;48.730;9.336;2022-09-28T03:40:40;3.38;;;0.98;;
5981;SDS011;3018;48.730;9.336;2022-09-28T03:43:06;4.00;;;1.10;;
5981;SDS011;3018;48.730;9.336;2022-09-28T03:45:33;1.08;;;0.80;;
5981;SDS011;3018;48.730;9.336;2022-09-28T03:47:59;6.05;;;1.20;;
5981;SDS011;3018;48.730;9.336;2022-09-28T03:50:25;3.20;;;1.20;;
5981;SDS011;3018;48.730;9.336;2022-09-28T03:52:52;6.40;;;1.02;;
5981;SDS011;3018;48.730;9.336;2022-09-28T03:55:18;1.27;;;0.73;;
5981;SDS011;3018;48.730;9.336;2022-09-28T03:57:49;3.63;;;1.08;;
5981;SDS011;3018;48.730;9.336;2022-09-28T04:00:17;2.85;;;0.95;;
5981;SDS011;3018;48.730;9.336;2022-09-28T04:02:44;0.73;;;0.65;;
5981;SDS011;3018;48.730;9.336;2022-09-28T04:05:10;1.65;;;0.93;;
5981;SDS011;3018;48.730;9.336;2022-09-28T04:07:36;5.72;;;1.23;;
5981;SDS011;3018;48.730;9.336;2022-09-28T04:10:03;1.95;;;1.00;;
5981;SDS011;3018;48.730;9.336;2022-09-28T04:12:29;1.50;;;1.00;;
5981;SDS011;3018;48.730;9.336;2022-09-28T04:14:57;2.95;;;0.80;;
5981;SDS011;3018;48.730;9.336;2022-09-28T04:17:26;0.95;;;0.60;;
5981;SDS011;3018;48.730;9.336;2022-09-28T04:19:52;2.78;;;0.90;;
5981;SDS011;3018;48.730;9.336;2022-09-28T04:22:18;2.85;;;0.80;;
5981;SDS011;3018;48.730;9.336;2022-09-28T04:24:44;2.65;;;0.80;;
5981;SDS011;3018;48.730;9.336;2022-09-28T04:27:11;1.98;;;1.48;;
5981;SDS011;3018;48.730;9.336;2022-09-28T04:29:54;6.13;;;2.70;;
5981;SDS011;3018;48.730;9.336;2022-09-28T04:32:22;6.22;;;3.42;;
5981;SDS011;3018;48.730;9.336;2022-09-28T04:34:48;1.45;;;1.35;;
5981;SDS011;3018;48.730;9.336;2022-09-28T04:37:15;5.13;;;3.40;;
5981;SDS011;3018;48.730;9.336;2022-09-28T04:39:42;2.80;;;0.93;;
5981;SDS011;3018;48.730;9.336;2022-09-28T04:42:08;1.02;;;0.82;;
5981;SDS011;3018;48.730;9.336;2022-09-28T04:44:34;3.05;;;1.02;;
5981;SDS011;3018;48.730;9.336;2022-09-28T04:47:01;1.30;;;1.20;;
5981;SDS011;3018;48.730;9.336;2022-09-28T04:49:28;2.85;;;0.93;;
5981;SDS011;3018;48.730;9.336;2022-09-28T04:51:55;1.27;;;0.90;;
5981;SDS011;3018;48.730;9.336;2022-09-28T04:54:21;0.60;;;0.60;;
5981;SDS011;3018;48.730;9.336;2022-09-28T04:56:47;1.83;;;1.02;;
5981;SDS011;3018;48.730;9.336;2022-09-28T04:59:16;0.77;;;0.73;;
5981;SDS011;3018;48.730;9.336;2022-09-28T05:01:42;2.65;;;1.25;;
5981;SDS011;3018;48.730;9.336;2022-09-28T05:04:09;2.90;;;1.88;;
5981;SDS011;3018;48.730;9.336;2022-09-28T05:06:36;1.80;;;1.40;;
5981;SDS011;3018;48.730;9.336;2022-09-28T05:09:02;1.40;;;1.30;;
5981;SDS011;3018;48.730;9.336;2022-09-28T05:11:29;1.00;;;0.95;;
5981;SDS011;3018;48.730;9.336;2022-09-28T05:13:55;4.68;;;1.10;;
5981;SDS011;3018;48.730;9.336;2022-09-28T05:16:21;2.05;;;1.30;;
5981;SDS011;3018;48.730;9.336;2022-09-28T05:18:53;2.38;;;0.90;;
5981;SDS011;3018;48.730;9.336;2022-09-28T05:21:19;0.90;;;0.90;;
5981;SDS011;3018;48.730;9.336;2022-09-28T05:23:46;2.67;;;1.20;;
5981;SDS011;3018;48.730;9.336;2022-09-28T05:26:13;1.08;;;1.00;;
5981;SDS011;3018;48.730;9.336;2022-09-28T05:28:39;1.55;;;1.00;;
5981;SDS011;3018;48.730;9.336;2022-09-28T05:31:05;4.03;;;0.70;;
5981;SDS011;3018;48.730;9.336;2022-09-28T05:33:32;3.42;;;0.93;;
5981;SDS011;3018;48.730;9.336;2022-09-28T05:35:58;2.45;;;0.93;;
5981;SDS011;3018;48.730;9.336;2022-09-28T05:38:25;1.67;;;1.20;;
5981;SDS011;3018;48.730;9.336;2022-09-28T05:40:52;1.67;;;1.00;;
5981;SDS011;3018;48.730;9.336;2022-09-28T05:43:19;1.00;;;0.80;;
5981;SDS011;3018;48.730;9.336;2022-09-28T05:45:45;1.45;;;1.10;;
5981;SDS011;3018;48.730;9.336;2022-09-28T05:48:11;3.92;;;0.93;;
5981;SDS011;3018;48.730;9.336;2022-09-28T05:50:38;4.70;;;1.05;;
5981;SDS011;3018;48.730;9.336;2022-09-28T05:53:04;1.35;;;0.73;;
5981;SDS011;3018;48.730;9.336;2022-09-28T05:55:31;2.17;;;1.30;;
5981;SDS011;3018;48.730;9.336;2022-09-28T05:57:59;2.25;;;1.38;;
5981;SDS011;3018;48.730;9.336;2022-09-28T06:00:26;2.15;;;1.30;;
5981;SDS011;3018;48.730;9.336;2022-09-28T06:02:56;1.58;;;1.02;;
5981;SDS011;3018;48.730;9.336;2022-09-28T06:05:22;1.52;;;1.15;;
5981;SDS011;3018;48.730;9.336;2022-09-28T06:07:49;1.80;;;1.10;;
5981;SDS011;3018;48.730;9.336;2022-09-28T06:10:15;1.55;;;0.95;;
5981;SDS011;3018;48.730;9.336;2022-09-28T06:12:41;1.20;;;0.80;;
5981;SDS011;3018;48.730;9.336;2022-09-28T06:15:10;1.95;;;0.80;;
5981;SDS011;3018;48.730;9.336;2022-09-28T06:17:37;2.72;;;1.00;;
5981;SDS011;3018;48.730;9.336;2022-09-28T06:20:04;2.30;;;1.00;;
5981;SDS011;3018;48.730;9.336;2022-09-28T06:22:30;3.38;;;0.90;;
5981;SDS011;3018;48.730;9.336;2022-09-28T06:24:56;0.90;;;0.82;;
5981;SDS011;3018;48.730;9.336;2022-09-28T06:27:23;2.72;;;0.90;;
5981;SDS011;3018;48.730;9.336;2022-09-28T06:29:49;0.98;;;0.90;;
5981;SDS011;3018;48.730;9.336;2022-09-28T06:32:17;0.90;;;0.88;;
5981;SDS011;3018;48.730;9.336;2022-09-28T06:34:43;4.35;;;1.08;;
5981;SDS011;3018;48.730;9.336;2022-09-28T06:37:10;2.45;;;1.00;;
5981;SDS011;3018;48.730;9.336;2022-09-28T06:39:36;1.67;;;1.52;;
5981;SDS011;3018;48.730;9.336;2022-09-28T06:42:02;1.77;;;1.00;;
5981;SDS011;3018;48.730;9.336;2022-09-28T06:44:29;1.20;;;1.02;;
5981;SDS011;3018;48.730;9.336;2022-09-28T06:46:56;3.25;;;1.10;;
5981;SDS011;3018;48.730;9.336;2022-09-28T06:49:24;2.13;;;0.98;;
5981;SDS011;3018;48.730;9.336;2022-09-28T06:51:53;2.92;;;1.08;;
5981;SDS011;3018;48.730;9.336;2022-09-28T06:54:19;2.83;;;1.13;;
5981;SDS011;3018;48.730;9.336;2022-09-28T06:56:49;1.33;;;1.23;;
5981;SDS011;3018;48.730;9.336;2022-09-28T06:59:15;1.38;;;1.20;;
5981;SDS011;3018;48.730;9.336;2022-09-28T07:01:42;1.67;;;1.58;;
5981;SDS011;3018;48.730;9.336;2022-09-28T07:04:08;2.17;;;1.38;;
5981;SDS011;3018;48.730;9.336;2022-09-28T07:06:36;3.25;;;1.50;;
5981;SDS011;3018;48.730;9.336;2022-09-28T07:09:02;4.60;;;1.52;;
5981;SDS011;3018;48.730;9.336;2022-09-28T07:11:35;3.42;;;1.35;;
5981;SDS011;3018;48.730;9.336;2022-09-28T07:14:03;2.20;;;1.70;;
5981;SDS011;3018;48.730;9.336;2022-09-28T07:16:29;2.03;;;1.30;;
5981;SDS011;3018;48.730;9.336;2022-09-28T07:18:56;2.25;;;1.30;;
5981;SDS011;3018;48.730;9.336;2022-09-28T07:21:22;2.55;;;1.65;;
5981;SDS011;3018;48.730;9.336;2022-09-28T07:23:50;1.48;;;1.40;;
5981;SDS011;3018;48.730;9.336;2022-09-28T07:26:17;2.53;;;1.73;;
5981;SDS011;3018;48.730;9.336;2022-09-28T07:28:44;3.85;;;1.88;;
5981;SDS011;3018;48.730;9.336;2022-09-28T07:31:10;3.45;;;1.90;;
5981;SDS011;3018;48.730;9.336;2022-09-28T07:33:36;6.53;;;1.88;;
5981;SDS011;3018;48.730;9.336;2022-09-28T07:36:02;1.77;;;1.67;;
5981;SDS011;3018;48.730;9.336;2022-09-28T07:38:30;3.03;;;2.28;;
5981;SDS011;3018;48.730;9.336;2022-09-28T07:40:58;3.95;;;2.80;;
5981;SDS011;3018;48.730;9.336;2022-09-28T07:43:36;2.50;;;2.20;;
5981;SDS011;3018;48.730;9.336;2022-09-28T07:46:03;4.20;;;2.50;;
5981;SDS011;3018;48.730;9.336;2022-09-28T07:48:36;2.08;;;1.98;;
5981;SDS011;3018;48.730;9.336;2022-09-28T07:51:03;7.53;;;2.38;;
5981;SDS011;3018;48.730;9.336;2022-09-28T07:53:29;5.57;;;2.53;;
5981;SDS011;3018;48.730;9.336;2022-09-28T07:55:56;4.78;;;1.60;;
5981;SDS011;3018;48.730;9.336;2022-09-28T07:58:30;2.83;;;1.77;;
5981;SDS011;3018;48.730;9.336;2022-09-28T08:00:57;2.70;;;2.33;;
5981;SDS011;3018;48.730;9.336;2022-09-28T08:03:25;5.70;;;2.10;;
5981;SDS011;3018;48.730;9.336;2022-09-28T08:05:55;3.28;;;1.85;;
5981;SDS011;3018;48.730;9.336;2022-09-28T08:08:22;5.90;;;2.08;;
5981;SDS011;3018;48.730;9.336;2022-09-28T08:10:48;2.83;;;1.50;;
5981;SDS011;3018;48.730;9.336;2022-09-28T08:13:16;1.70;;;1.25;;
5981;SDS011;3018;48.730;9.336;2022-09-28T08:15:44;3.88;;;1.70;;
5981;SDS011;3018;48.730;9.336;2022-09-28T08:18:15;2.00;;;1.70;;
5981;SDS011;3018;48.730;9.336;2022-09-28T08:20:41;4.68;;;1.75;;
5981;SDS011;3018;48.730;9.336;2022-09-28T08:23:25;3.58;;;1.52;;
5981;SDS011;3018;48.730;9.336;2022-09-28T08:25:52;1.95;;;1.50;;
5981;SDS011;3018;48.730;9.336;2022-09-28T08:28:19;2.75;;;1.23;;
5981;SDS011;3018;48.730;9.336;2022-09-28T08:30:47;2.55;;;1.60;;
5981;SDS011;3018;48.730;9.336;2022-09-28T08:33:13;2.83;;;1.23;;
5981;SDS011;3018;48.730;9.336;2022-09-28T08:35:40;4.07;;;1.80;;
5981;SDS011;3018;48.730;9.336;2022-09-28T08:38:06;5.43;;;1.55;;
5981;SDS011;3018;48.730;9.336;2022-09-28T08:40:33;3.55;;;1.65;;
5981;SDS011;3018;48.730;9.336;2022-09-28T08:43:03;4.85;;;1.98;;
5981;SDS011;3018;48.730;9.336;2022-09-28T08:45:31;1.77;;;1.52;;
5981;SDS011;3018;48.730;9.336;2022-09-28T08:48:00;3.25;;;1.70;;
5981;SDS011;3018;48.730;9.336;2022-09-28T08:50:46;5.07;;;1.90;;
5981;SDS011;3018;48.730;9.336;2022-09-28T08:53:17;3.50;;;1.63;;
5981;SDS011;3018;48.730;9.336;2022-09-28T08:55:45;4.78;;;2.00;;
5981;SDS011;3018;48.730;9.336;2022-09-28T08:58:12;2.05;;;1.60;;
5981;SDS011;3018;48.730;9.336;2022-09-28T09:00:41;4.88;;;1.70;;
5981;SDS011;3018;48.730;9.336;2022-09-28T09:03:11;5.20;;;1.70;;
5981;SDS011;3018;48.730;9.336;2022-09-28T09:05:42;2.97;;;1.60;;
5981;SDS011;3018;48.730;9.336;2022-09-28T09:08:15;6.10;;;1.95;;
5981;SDS011;3018;48.730;9.336;2022-09-28T09:10:48;3.55;;;2.13;;
5981;SDS011;3018;48.730;9.336;2022-09-28T09:13:22;7.68;;;1.95;;
5981;SDS011;3018;48.730;9.336;2022-09-28T09:15:51;5.20;;;1.60;;
5981;SDS011;3018;48.730;9.336;2022-09-28T09:18:24;4.22;;;1.80;;
5981;SDS011;3018;48.730;9.336;2022-09-28T09:20:56;4.05;;;2.00;;
5981;SDS011;3018;48.730;9.336;2022-09-28T09:23:25;3.30;;;1.70;;
5981;SDS011;3018;48.730;9.336;2022-09-28T09:25:56;1.70;;;1.52;;
5981;SDS011;3018;48.730;9.336;2022-09-28T09:31:11;4.40;;;1.63;;
5981;SDS011;3018;48.730;9.336;2022-09-28T09:33:45;4.13;;;1.70;;
5981;SDS011;3018;48.730;9.336;2022-09-28T09:36:28;3.75;;;1.70;;
5981;SDS011;3018;48.730;9.336;2022-09-28T09:39:02;2.55;;;1.77;;
5981;SDS011;3018;48.730;9.336;2022-09-28T09:41:35;5.18;;;1.35;;
5981;SDS011;3018;48.730;9.336;2022-09-28T09:44:11;4.18;;;1.70;;
5981;SDS011;3018;48.730;9.336;2022-09-28T09:46:40;3.30;;;1.77;;
5981;SDS011;3018;48.730;9.336;2022-09-28T09:49:11;2.50;;;1.23;;
5981;SDS011;3018;48.730;9.336;2022-09-28T09:51:41;3.40;;;1.25;;
5981;SDS011;3018;48.730;9.336;2022-09-28T09:54:11;2.80;;;1.10;;
5981;SDS011;3018;48.730;9.336;2022-09-28T09:56:42;2.80;;;1.35;;
5981;SDS011;3018;48.730;9.336;2022-09-28T09:59:12;5.03;;;1.70;;
5981;SDS011;3018;48.730;9.336;2022-09-28T10:01:40;2.90;;;1.73;;
5981;SDS011;3018;48.730;9.336;2022-09-28T10:04:10;4.45;;;1.35;;
5981;SDS011;3018;48.730;9.336;2022-09-28T10:06:39;3.72;;;1.55;;
5981;SDS011;3018;48.730;9.336;2022-09-28T10:09:08;2.50;;;1.33;;
5981;SDS011;3018;48.730;9.336;2022-09-28T10:11:37;2.38;;;1.50;;
5981;SDS011;3018;48.730;9.336;2022-09-28T10:14:04;4.70;;;1.83;;
5981;SDS011;3018;48.730;9.336;2022-09-28T10:16:32;1.85;;;1.20;;
5981;SDS011;3018;48.730;9.336;2022-09-28T10:18:59;3.65;;;1.50;;
5981;SDS011;3018;48.730;9.336;2022-09-28T10:21:25;5.43;;;1.25;;
5981;SDS011;3018;48.730;9.336;2022-09-28T10:23:55;2.65;;;1.20;;
5981;SDS011;3018;48.730;9.336;2022-09-28T10:26:23;3.85;;;1.40;;
5981;SDS011;3018;48.730;9.336;2022-09-28T10:28:51;1.17;;;1.08;;
5981;SDS011;3018;48.730;9.336;2022-09-28T10:31:35;2.22;;;0.95;;
5981;SDS011;3018;48.730;9.336;2022-09-28T10:34:02;7.82;;;1.90;;
5981;SDS011;3018;48.730;9.336;2022-09-28T10:36:29;1.58;;;1.10;;
5981;SDS011;3018;48.730;9.336;2022-09-28T10:39:03;4.43;;;1.60;;
5981;SDS011;3018;48.730;9.336;2022-09-28T10:41:29;2.90;;;1.30;;
5981;SDS011;3018;48.730;9.336;2022-09-28T10:43:57;3.17;;;1.50;;
5981;SDS011;3018;48.730;9.336;2022-09-28T10:46:31;2.70;;;1.35;;
5981;SDS011;3018;48.730;9.336;2022-09-28T10:48:58;1.33;;;1.23;;
5981;SDS011;3018;48.730;9.336;2022-09-28T10:51:38;1.85;;;1.30;;
5981;SDS011;3018;48.730;9.336;2022-09-28T10:54:09;3.20;;;1.58;;
5981;SDS011;3018;48.730;9.336;2022-09-28T10:56:38;2.83;;;1.70;;
5981;SDS011;3018;48.730;9.336;2022-09-28T10:59:06;1.85;;;1.30;;
5981;SDS011;3018;48.730;9.336;2022-09-28T11:01:47;2.08;;;0.98;;
5981;SDS011;3018;48.730;9.336;2022-09-28T11:04:18;3.35;;;1.33;;
5981;SDS011;3018;48.730;9.336;2022-09-28T11:06:45;7.78;;;1.92;;
5981;SDS011;3018;48.730;9.336;2022-09-28T11:09:21;2.30;;;1.60;;
5981;SDS011;3018;48.730;9.336;2022-09-28T11:11:49;2.90;;;1.50;;
5981;SDS011;3018;48.730;9.336;2022-09-28T11:14:19;2.38;;;1.13;;
5981;SDS011;3018;48.730;9.336;2022-09-28T11:16:48;1.48;;;1.38;;
5981;SDS011;3018;48.730;9.336;2022-09-28T11:19:35;1.73;;;1.50;;
5981;SDS011;3018;48.730;9.336;2022-09-28T11:22:02;3.22;;;1.10;;
5981;SDS011;3018;48.730;9.336;2022-09-28T11:24:44;2.80;;;1.05;;
5981;SDS011;3018;48.730;9.336;2022-09-28T11:27:17;3.33;;;1.15;;
5981;SDS011;3018;48.730;9.336;2022-09-28T11:29:44;2.28;;;1.33;;
5981;SDS011;3018;48.730;9.336;2022-09-28T11:32:16;4.80;;;1.30;;
5981;SDS011;3018;48.730;9.336;2022-09-28T11:34:45;2.40;;;1.25;;
5981;SDS011;3018;48.730;9.336;2022-09-28T11:37:17;2.08;;;1.40;;
5981;SDS011;3018;48.730;9.336;2022-09-28T11:39:49;5.55;;;1.40;;
5981;SDS011;3018;48.730;9.336;2022-09-28T11:42:21;5.68;;;1.45;;
5981;SDS011;3018;48.730;9.336;2022-09-28T11:44:49;3.35;;;1.00;;
5981;SDS011;3018;48.730;9.336;2022-09-28T11:50:05;3.05;;;1.35;;
5981;SDS011;3018;48.730;9.336;2022-09-28T11:52:36;3.83;;;1.48;;
5981;SDS011;3018;48.730;9.336;2022-09-28T11:55:05;2.15;;;1.38;;
5981;SDS011;3018;48.730;9.336;2022-09-28T11:57:35;3.95;;;1.30;;
5981;SDS011;3018;48.730;9.336;2022-09-28T12:00:03;6.40;;;1.15;;
5981;SDS011;3018;48.730;9.336;2022-09-28T12:02:32;2.60;;;1.13;;
5981;SDS011;3018;48.730;9.336;2022-09-28T12:05:02;1.60;;;1.15;;
5981;SDS011;3018;48.730;9.336;2022-09-28T12:07:36;3.83;;;1.17;;
5981;SDS011;3018;48.730;9.336;2022-09-28T12:10:07;1.90;;;1.10;;
5981;SDS011;3018;48.730;9.336;2022-09-28T12:12:36;1.63;;;1.20;;
5981;SDS011;3018;48.730;9.336;2022-09-28T12:15:04;4.32;;;1.40;;
5981;SDS011;3018;48.730;9.336;2022-09-28T12:17:37;1.55;;;1.00;;
5981;SDS011;3018;48.730;9.336;2022-09-28T12:20:09;3.63;;;1.25;;
5981;SDS011;3018;48.730;9.336;2022-09-28T12:22:39;3.10;;;1.17;;
5981;SDS011;3018;48.730;9.336;2022-09-28T12:25:09;2.67;;;1.20;;
5981;SDS011;3018;48.730;9.336;2022-09-28T12:27:39;2.55;;;1.23;;
5981;SDS011;3018;48.730;9.336;2022-09-28T12:30:10;1.40;;;0.90;;
5981;SDS011;3018;48.730;9.336;2022-09-28T12:32:38;4.20;;;1.25;;
5981;SDS011;3018;48.730;9.336;2022-09-28T12:35:18;2.83;;;1.05;;
5981;SDS011;3018;48.730;9.336;2022-09-28T12:37:55;2.50;;;1.20;;
5981;SDS011;3018;48.730;9.336;2022-09-28T12:40:30;2.42;;;0.75;;
5981;SDS011;3018;48.730;9.336;2022-09-28T12:43:05;1.85;;;1.05;;
5981;SDS011;3018;48.730;9.336;2022-09-28T12:45:36;2.05;;;0.90;;
5981;SDS011;3018;48.730;9.336;2022-09-28T12:48:10;3.55;;;0.90;;
5981;SDS011;3018;48.730;9.336;2022-09-28T12:50:42;1.00;;;0.90;;
5981;SDS011;3018;48.730;9.336;2022-09-28T12:53:28;5.00;;;0.98;;
5981;SDS011;3018;48.730;9.336;2022-09-28T12:55:57;0.93;;;0.80;;
5981;SDS011;3018;48.730;9.336;2022-09-28T12:58:36;1.73;;;0.95;;
5981;SDS011;3018;48.730;9.336;2022-09-28T13:01:10;2.25;;;0.68;;
5981;SDS011;3018;48.730;9.336;2022-09-28T13:03:49;3.53;;;0.98;;
5981;SDS011;3018;48.730;9.336;2022-09-28T13:06:38;2.42;;;0.77;;
5981;SDS011;3018;48.730;9.336;2022-09-28T13:17:22;2.75;;;1.00;;
5981;SDS011;3018;48.730;9.336;2022-09-28T13:19:53;1.30;;;0.90;;
5981;SDS011;3018;48.730;9.336;2022-09-28T13:22:23;1.85;;;1.00;;
5981;SDS011;3018;48.730;9.336;2022-09-28T13:24:52;3.13;;;0.73;;
5981;SDS011;3018;48.730;9.336;2022-09-28T13:27:21;1.80;;;0.90;;
5981;SDS011;3018;48.730;9.336;2022-09-28T13:29:50;2.35;;;0.80;;
5981;SDS011;3018;48.730;9.336;2022-09-28T13:32:17;0.93;;;0.90;;
5981;SDS011;3018;48.730;9.336;2022-09-28T13:34:46;3.33;;;0.98;;
5981;SDS011;3018;48.730;9.336;2022-09-28T13:37:18;3.72;;;0.90;;
5981;SDS011;3018;48.730;9.336;2022-09-28T13:39:46;1.80;;;0.90;;
5981;SDS011;3018;48.730;9.336;2022-09-28T13:42:23;1.73;;;0.75;;
5981;SDS011;3018;48.730;9.336;2022-09-28T13:47:39;1.77;;;0.80;;
5981;SDS011;3018;48.730;9.336;2022-09-28T13:50:14;0.70;;;0.70;;
5981;SDS011;3018;48.730;9.336;2022-09-28T13:52:43;2.00;;;0.70;;
5981;SDS011;3018;48.730;9.336;2022-09-28T13:55:17;2.13;;;0.68;;
5981;SDS011;3018;48.730;9.336;2022-09-28T13:57:48;0.90;;;0.63;;
5981;SDS011;3018;48.730;9.336;2022-09-28T14:00:18;0.60;;;0.60;;
5981;SDS011;3018;48.730;9.336;2022-09-28T14:02:46;1.02;;;0.70;;
5981;SDS011;3018;48.730;9.336;2022-09-28T14:05:43;1.67;;;0.70;;
5981;SDS011;3018;48.730;9.336;2022-09-28T14:08:18;2.15;;;0.80;;
5981;SDS011;3018;48.730;9.336;2022-09-28T14:10:48;2.30;;;0.60;;
5981;SDS011;3018;48.730;9.336;2022-09-28T14:18:42;2.97;;;0.77;;
5981;SDS011;3018;48.730;9.336;2022-09-28T14:21:21;4.32;;;0.95;;
5981;SDS011;3018;48.730;9.336;2022-09-28T14:23:54;2.38;;;0.73;;
5981;SDS011;3018;48.730;9.336;2022-09-28T14:29:14;3.47;;;0.68;;
5981;SDS011;3018;48.730;9.336;2022-09-28T14:31:44;4.25;;;0.70;;
5981;SDS011;3018;48.730;9.336;2022-09-28T14:34:21;1.40;;;0.80;;
5981;SDS011;3018;48.730;9.336;2022-09-28T14:36:50;0.98;;;0.80;;
5981;SDS011;3018;48.730;9.336;2022-09-28T14:39:34;2.95;;;0.73;;
5981;SDS011;3018;48.730;9.336;2022-09-28T14:42:20;1.08;;;0.82;;
5981;SDS011;3018;48.730;9.336;2022-09-28T14:47:32;1.52;;;0.70;;
5981;SDS011;3018;48.730;9.336;2022-09-28T14:49:59;0.85;;;0.60;;
5981;SDS011;3018;48.730;9.336;2022-09-28T14:52:41;1.38;;;0.70;;
5981;SDS011;3018;48.730;9.336;2022-09-28T14:55:11;1.60;;;0.73;;
5981;SDS011;3018;48.730;9.336;2022-09-28T14:57:39;3.55;;;0.93;;
5981;SDS011;3018;48.730;9.336;2022-09-28T15:00:06;1.80;;;0.75;;
5981;SDS011;3018;48.730;9.336;2022-09-28T15:02:34;1.50;;;0.73;;
5981;SDS011;3018;48.730;9.336;2022-09-28T15:05:08;1.60;;;0.73;;
5981;SDS011;3018;48.730;9.336;2022-09-28T15:07:43;2.47;;;0.90;;
5981;SDS011;3018;48.730;9.336;2022-09-28T15:10:14;1.17;;;0.77;;
5981;SDS011;3018;48.730;9.336;2022-09-28T15:12:46;1.52;;;0.80;;
5981;SDS011;3018;48.730;9.336;2022-09-28T15:15:26;1.58;;;0.60;;
5981;SDS011;3018;48.730;9.336;2022-09-28T15:17:58;1.63;;;0.80;;
5981;SDS011;3018;48.730;9.336;2022-09-28T15:20:27;0.80;;;0.80;;
5981;SDS011;3018;48.730;9.336;2022-09-28T15:22:56;0.90;;;0.90;;
5981;SDS011;3018;48.730;9.336;2022-09-28T15:25:25;2.78;;;1.20;;
5981;SDS011;3018;48.730;9.336;2022-09-28T15:27:52;2.22;;;0.90;;
5981;SDS011;3018;48.730;9.336;2022-09-28T15:30:20;3.53;;;0.60;;
5981;SDS011;3018;48.730;9.336;2022-09-28T15:32:48;2.25;;;0.80;;
5981;SDS011;3018;48.730;9.336;2022-09-28T15:35:17;1.38;;;0.60;;
5981;SDS011;3018;48.730;9.336;2022-09-28T15:37:44;1.65;;;0.68;;
5981;SDS011;3018;48.730;9.336;2022-09-28T15:40:15;0.98;;;0.70;;
5981;SDS011;3018;48.730;9.336;2022-09-28T15:42:42;1.40;;;0.70;;
5981;SDS011;3018;48.730;9.336;2022-09-28T15:45:19;1.80;;;0.95;;
5981;SDS011;3018;48.730;9.336;2022-09-28T15:47:48;1.40;;;0.80;;
5981;SDS011;3018;48.730;9.336;2022-09-28T15:50:19;1.15;;;0.77;;
5981;SDS011;3018;48.730;9.336;2022-09-28T15:52:51;0.60;;;0.60;;
5981;SDS011;3018;48.730;9.336;2022-09-28T15:55:19;0.60;;;0.60;;
5981;SDS011;3018;48.730;9.336;2022-09-28T15:57:47;4.35;;;0.90;;